Latest Weather Observations for Weipa

IDQ60801

Issued at 8:35 pm EST Thursday 2 October 2014 (issued every 30 minutes, with the page automatically refreshed every 10 minutes)

About weather observations | Map of weather stations | Latest weather observations for QLD | Other Formats
Station Details ID: 027045 Name: WEIPA AERO Lat: -12.68 Lon: 141.92 Height: 17.96 m
Data from the previous 72 hours. | See also: Recent months at Weipa
Date/Time
EST
Temp
°C
App
Temp
°C
Dew
Point
Rel
Hum
%
Delta-T
°C
Wind Press
QNH
hPa
Press
MSL
hPa
Rain
since 9 am
mm
Dir
 
Spd
km/h
Gust
km/h
Spd
kts
Gust
kts
02/08:30pm 25.4 27.8 20.8 75 3.0 E 9 11 5 6 1013.1 - 0.0
02/08:00pm 25.4 29.2 20.9 76 3.0 N 2 6 1 3 1012.5 - 0.0
02/07:30pm 25.5 28.8 20.7 75 3.1 N 4 6 2 3 1012.0 - 0.0
02/07:00pm 26.0 28.2 20.5 71 3.6 N 9 15 5 8 1011.3 - 0.0
02/06:30pm 26.9 28.9 19.9 65 4.6 NW 9 15 5 8 1010.4 - 0.0
02/06:29pm 26.8 28.8 19.9 66 4.5 NW 9 13 5 7 1010.4 - 0.0
02/06:00pm 27.5 30.0 19.9 63 5.0 W 6 11 3 6 1009.7 1009.5 0.0
02/05:30pm 28.3 30.2 19.8 60 5.6 W 9 17 5 9 1009.0 - 0.0
02/05:05pm 28.8 30.0 19.1 55 6.3 W 11 20 6 11 1008.8 - 0.0
02/05:04pm 29.0 30.2 19.1 55 6.4 W 11 20 6 11 1008.7 - 0.0
02/05:00pm 28.8 29.5 18.8 54 6.4 WSW 13 24 7 13 1008.7 - 0.0
02/04:30pm 29.7 30.6 18.4 50 7.3 WSW 11 19 6 10 1008.5 - 0.0
02/04:16pm 29.8 30.4 18.6 51 7.2 W 13 24 7 13 1008.5 - 0.0
02/04:00pm 30.6 31.3 18.9 49 7.6 W 13 22 7 12 1008.6 - 0.0
02/03:30pm 31.1 31.7 18.5 47 8.1 W 13 20 7 11 1008.7 - 0.0
02/03:00pm 30.3 30.0 18.2 48 7.8 W 17 28 9 15 1009.0 1008.8 0.0
02/02:30pm 30.6 30.4 18.5 48 7.8 W 17 26 9 14 1009.3 - 0.0
02/02:00pm 34.5 31.9 10.8 23 13.8 SSE 15 24 8 13 1009.7 - 0.0
02/01:30pm 32.6 30.4 10.7 26 12.7 SE 13 28 7 15 1010.2 - 0.0
02/01:00pm 32.1 30.4 11.2 27 12.2 SE 11 22 6 12 1010.7 - 0.0
02/12:30pm 31.9 29.6 11.6 28 11.9 SSE 15 30 8 16 1011.3 - 0.0
02/12:00pm 30.5 29.2 13.7 35 10.1 SE 13 24 7 13 1012.3 1012.1 0.0
02/11:30am 30.0 28.2 14.4 38 9.5 E 17 26 9 14 1012.8 - 0.0
02/11:00am 28.9 27.9 15.6 44 8.2 E 15 26 8 14 1013.4 - 0.0
02/10:30am 28.2 26.8 15.5 46 7.8 E 17 28 9 15 1013.8 - 0.0
02/10:00am 27.8 27.4 16.1 49 7.2 E 13 26 7 14 1014.1 - 0.0
02/09:30am 26.4 25.9 17.0 56 5.9 E 15 22 8 12 1014.4 - 0.0
02/09:00am 25.5 25.1 17.2 60 5.2 E 15 22 8 12 1014.6 1014.4 0.0
02/08:30am 24.5 25.0 17.4 64 4.4 SE 11 17 6 9 1014.5 - 0.0
02/08:00am 22.7 24.1 17.4 72 3.3 ESE 6 9 3 5 1014.3 - 0.0
02/07:30am 21.3 23.4 17.2 77 2.5 S 2 7 1 4 1014.1 - 0.0
02/07:00am 18.9 21.1 16.6 86 1.4 CALM 0 2 0 1 1013.8 - 0.0
02/06:30am 17.5 19.5 15.9 90 0.9 CALM 0 4 0 2 1013.5 - 0.0
02/06:00am 17.7 19.7 15.9 89 1.1 S 0 0 0 0 1013.4 1013.2 0.0
02/05:30am 17.8 19.3 15.8 88 1.2 SSE 2 4 1 2 1013.0 - 0.0
02/05:00am 17.8 19.8 16.0 89 1.1 CALM 0 0 0 0 1012.9 - 0.0
02/04:30am 17.8 19.4 15.9 89 1.1 S 2 4 1 2 1012.6 - 0.0
02/04:00am 17.8 19.8 16.1 90 1.0 CALM 0 2 0 1 1012.1 - 0.0
02/03:30am 18.7 20.3 15.9 84 1.7 SE 2 4 1 2 1012.2 - 0.0
02/03:00am 18.9 21.1 16.4 85 1.5 CALM 0 0 0 0 1012.4 1012.2 0.0
02/02:30am 19.5 21.7 16.6 83 1.7 CALM 0 0 0 0 1012.5 - 0.0
02/02:00am 19.8 21.9 16.3 80 2.1 CALM 0 0 0 0 1012.7 - 0.0
02/01:30am 20.1 22.2 16.2 78 2.3 CALM 0 0 0 0 1013.0 - 0.0
02/01:00am 20.3 22.5 16.4 78 2.3 CALM 0 2 0 1 1013.2 - 0.0
02/12:30am 21.1 23.2 16.3 74 2.9 CALM 0 2 0 1 1013.6 - 0.0
02/12:00am 22.2 23.5 16.2 69 3.6 E 4 6 2 3 1013.9 1013.7 0.0
 
Date/Time
EST
Temp
°C
App
Temp
°C
Dew
Point
Rel
Hum
%
Delta-T
°C
Wind Press
QNH
hPa
Press
MSL
hPa
Rain
since 9 am
mm
Dir
 
Spd
km/h
Gust
km/h
Spd
kts
Gust
kts
01/11:30pm 23.0 23.9 16.0 64 4.2 E 6 9 3 5 1014.0 - 0.0
01/11:00pm 23.4 23.5 15.6 61 4.7 ESE 9 15 5 8 1014.1 - 0.0
01/10:30pm 24.0 23.7 15.4 58 5.2 E 11 17 6 9 1013.9 - 0.0
01/10:00pm 24.3 24.4 15.5 58 5.3 ESE 9 17 5 9 1014.0 - 0.0
01/09:30pm 24.8 25.0 15.8 57 5.5 E 9 17 5 9 1013.9 - 0.0
01/09:00pm 25.3 25.0 15.4 54 6.0 E 11 19 6 10 1013.4 1013.2 0.0
01/08:30pm 25.5 26.7 16.9 59 5.3 NE 6 13 3 7 1013.2 - 0.0
01/08:00pm 24.9 28.0 20.2 75 3.1 N 4 7 2 4 1012.7 - 0.0
01/07:30pm 25.2 27.9 20.2 74 3.3 N 6 7 3 4 1012.2 - 0.0
01/07:00pm 25.2 27.4 20.3 74 3.2 WNW 9 17 5 9 1011.4 - 0.0
01/06:30pm 25.9 28.4 20.2 71 3.7 WNW 7 15 4 8 1011.1 - 0.0
01/06:00pm 27.4 29.8 19.7 63 5.0 WNW 6 13 3 7 1010.5 1010.3 0.0
01/05:30pm 31.5 28.9 12.0 30 11.5 ESE 17 28 9 15 1010.0 - 0.0
01/05:00pm 32.3 28.9 11.2 27 12.3 E 20 32 11 17 1009.5 - 0.0
01/04:30pm 32.5 27.9 11.0 26 12.5 E 26 41 14 22 1009.3 - 0.0
01/04:00pm 33.7 29.3 10.5 24 13.4 SE 24 33 13 18 1009.1 - 0.0
01/03:30pm 33.9 28.7 10.1 23 13.7 E 28 39 15 21 1009.0 - 0.0
01/03:00pm 34.1 30.9 10.0 23 13.9 ESE 17 37 9 20 1009.2 1009.0 0.0
01/02:30pm 34.1 30.4 10.3 23 13.8 SE 20 32 11 17 1009.6 - 0.0
01/02:00pm 33.4 29.3 10.2 24 13.4 E 22 41 12 22 1010.0 - 0.0
01/01:30pm 33.7 28.5 10.2 23 13.6 ESE 28 44 15 24 1010.5 - 0.0
01/01:00pm 33.3 28.8 10.0 24 13.4 ESE 24 39 13 21 1011.0 - 0.0
01/12:30pm 32.6 29.3 10.8 26 12.6 SE 19 37 10 20 1011.7 - 0.0
01/12:00pm 31.6 28.3 11.5 29 11.7 ESE 20 37 11 20 1012.5 1012.3 0.0
01/11:30am 30.7 25.9 11.8 31 11.0 E 28 39 15 21 1013.1 - 0.0
01/11:00am 29.9 26.1 12.4 34 10.3 E 24 35 13 19 1013.8 - 0.0
01/10:30am 28.6 25.3 13.9 40 8.8 ESE 24 33 13 18 1014.4 - 0.0
01/10:00am 27.8 24.3 13.5 41 8.5 ESE 24 37 13 20 1014.8 - 0.0
01/09:30am 27.1 25.3 15.4 48 7.1 ESE 19 30 10 16 1015.1 - 0.0
01/09:00am 25.7 23.5 15.9 54 6.0 ESE 22 32 12 17 1015.5 1015.3 0.0
01/08:30am 24.3 23.3 16.6 62 4.7 ESE 17 30 9 16 1015.4 - 0.0
01/08:00am 23.0 22.9 17.0 69 3.7 ESE 13 20 7 11 1015.2 - 0.0
01/07:30am 20.9 21.6 17.0 78 2.4 SE 9 13 5 7 1014.8 - 0.0
01/07:00am 19.0 21.0 17.0 88 1.2 SE 2 4 1 2 1014.4 - 0.0
01/06:30am 17.9 19.2 16.2 90 1.0 SE 4 6 2 3 1014.3 - 0.0
01/06:00am 18.2 20.0 16.4 89 1.1 SSE 2 4 1 2 1014.1 1013.9 0.0
01/05:30am 18.3 19.4 16.5 89 1.1 SSE 6 7 3 4 1013.8 - 0.0
01/05:00am 19.0 20.1 16.6 86 1.4 SSE 6 7 3 4 1013.4 - 0.0
01/04:30am 19.1 20.2 16.5 85 1.6 SE 6 6 3 3 1013.1 - 0.0
01/04:00am 19.4 20.4 16.3 82 1.9 ESE 6 7 3 4 1013.0 - 0.0
01/03:30am 19.8 20.8 16.3 80 2.1 ESE 6 7 3 4 1013.1 - 0.0
01/03:00am 19.9 20.8 16.2 79 2.2 ESE 6 6 3 3 1013.2 1013.0 0.0
01/02:30am 20.3 21.2 16.2 77 2.5 ESE 6 6 3 3 1013.4 - 0.0
01/02:00am 21.0 22.0 16.3 74 2.8 E 6 9 3 5 1013.6 - 0.0
01/01:30am 21.5 22.2 16.1 71 3.3 E 7 15 4 8 1013.7 - 0.0
01/01:00am 21.8 22.1 16.0 69 3.5 E 9 13 5 7 1014.0 - 0.0
01/12:30am 22.1 22.4 15.9 68 3.7 E 9 15 5 8 1014.5 - 0.0
01/12:00am 22.7 21.7 15.7 64 4.2 E 15 22 8 12 1014.7 1014.6 0.0
 
Date/Time
EST
Temp
°C
App
Temp
°C
Dew
Point
Rel
Hum
%
Delta-T
°C
Wind Press
QNH
hPa
Press
MSL
hPa
Rain
since 9 am
mm
Dir
 
Spd
km/h
Gust
km/h
Spd
kts
Gust
kts
30/11:30pm 22.8 22.5 15.5 63 4.4 E 11 20 6 11 1014.9 - 0.0
30/11:00pm 23.0 22.5 15.0 60 4.8 E 11 20 6 11 1015.1 - 0.0
30/10:30pm 23.5 22.5 14.5 57 5.3 E 13 19 7 10 1015.2 - 0.0
30/10:00pm 23.9 22.2 14.6 56 5.5 E 17 28 9 15 1015.1 - 0.0
30/09:30pm 24.5 23.3 15.1 55 5.6 E 15 30 8 16 1015.0 - 0.0
30/09:00pm 25.1 23.1 15.0 53 6.1 E 19 32 10 17 1014.6 1014.5 0.0
30/08:30pm 25.7 23.7 15.0 51 6.4 E 19 30 10 16 1014.3 - 0.0
30/08:00pm 26.5 24.7 14.5 47 7.2 E 17 28 9 15 1013.8 - 0.0
30/07:30pm 27.1 26.5 14.7 46 7.5 E 11 20 6 11 1013.3 - 0.0
30/07:00pm 27.9 26.2 14.7 44 8.0 E 17 30 9 16 1012.8 - 0.0
30/06:30pm 28.8 26.7 13.6 39 9.1 E 17 26 9 14 1012.2 - 0.0
30/06:00pm 29.5 26.7 13.3 37 9.6 E 20 32 11 17 1011.6 1011.5 0.0
30/05:30pm 30.6 27.3 11.5 30 11.1 E 20 30 11 16 1011.2 - 0.0
30/05:00pm 31.1 27.8 10.8 28 11.7 ESE 19 26 10 14 1010.8 - 0.0
30/04:30pm 31.6 28.3 11.7 29 11.6 ESE 20 30 11 16 1010.7 - 0.0
30/04:00pm 32.1 28.8 11.5 28 12.0 ESE 20 33 11 18 1010.6 - 0.0
30/03:30pm 32.6 29.0 10.6 26 12.7 E 20 28 11 15 1010.6 - 0.0
30/03:00pm 32.9 29.2 10.0 24 13.1 E 20 32 11 17 1010.6 1010.5 0.0
30/02:30pm 33.3 29.1 8.2 21 14.0 E 20 37 11 20 1010.9 - 0.0
30/02:00pm 33.4 29.5 8.7 21 13.9 SE 19 33 10 18 1011.1 - 0.0
30/01:30pm 31.6 29.4 10.7 27 12.0 SE 13 22 7 12 1011.6 - 0.0
30/01:00pm 32.2 28.4 11.1 27 12.3 ENE 22 35 12 19 1012.3 - 0.0
30/12:30pm 31.4 28.3 12.2 30 11.3 E 20 32 11 17 1012.9 - 0.0
30/12:00pm 30.7 26.6 11.4 30 11.2 E 24 35 13 19 1013.5 1013.4 0.0
30/11:30am 30.1 25.9 11.0 30 11.0 ENE 24 35 13 19 1014.1 - 0.0
30/11:00am 30.4 26.5 10.9 30 11.2 E 22 37 12 20 1014.7 - 0.0
30/10:30am 29.2 25.1 11.3 33 10.3 E 24 41 13 22 1014.9 - 0.0
30/10:00am 27.9 24.3 12.9 39 8.8 E 24 30 13 16 1015.4 - 0.0
30/09:30am 26.3 23.1 15.2 50 6.7 ESE 26 35 14 19 1015.6 - 0.0
30/09:00am 25.8 24.1 16.2 55 5.9 E 20 30 11 16 1015.8 1015.7 0.0
30/08:30am 24.8 24.8 17.2 62 4.7 SE 13 22 7 12 1015.7 - 0.0
30/08:00am 22.7 23.8 17.2 71 3.4 SSE 7 13 4 7 1015.5 - 0.0
30/07:30am 21.3 22.4 17.0 76 2.6 SSE 7 13 4 7 1015.2 - 0.0
30/07:00am 19.7 20.9 16.9 84 1.7 SSE 6 7 3 4 1014.9 - 0.0
30/06:30am 18.3 19.4 16.5 89 1.1 SSE 6 7 3 4 1014.6 - 0.0
30/06:00am 17.9 19.1 15.8 87 1.2 SSE 4 6 2 3 1014.3 1014.2 0.0
30/05:30am 18.5 19.6 16.6 89 1.1 S 6 7 3 4 1013.9 - 0.0
30/05:00am 18.4 20.2 16.4 88 1.2 S 2 4 1 2 1013.6 - 0.0
30/04:30am 18.6 20.7 16.2 86 1.4 CALM 0 2 0 1 1013.3 - 0.0
30/04:00am 19.2 20.7 16.6 85 1.6 S 4 6 2 3 1013.0 - 0.0
30/03:30am 19.7 21.1 16.5 82 1.9 S 4 7 2 4 1012.9 - 0.0
30/03:00am 20.1 21.5 16.4 79 2.2 SE 4 6 2 3 1013.1 1013.0 0.0
30/02:30am 20.8 21.8 16.3 75 2.7 SE 6 9 3 5 1013.2 - 0.0
30/02:00am 21.6 22.0 16.4 72 3.1 E 9 13 5 7 1013.5 - 0.0
30/01:30am 21.9 22.3 16.3 70 3.4 E 9 15 5 8 1013.6 - 0.0
30/01:00am 22.4 22.4 16.2 68 3.8 E 11 17 6 9 1013.9 - 0.0
30/12:30am 22.7 21.9 16.1 66 4.0 E 15 26 8 14 1014.2 - 0.0
30/12:00am 23.1 21.9 16.1 64 4.2 E 17 24 9 13 1014.3 1014.2 0.0
 
Date/Time
EST
Temp
°C
App
Temp
°C
Dew
Point
Rel
Hum
%
Delta-T
°C
Wind Press
QNH
hPa
Press
MSL
hPa
Rain
since 9 am
mm
Dir
 
Spd
km/h
Gust
km/h
Spd
kts
Gust
kts
29/11:30pm 23.4 21.6 15.9 62 4.5 E 20 32 11 17 1014.5 - 0.0
29/11:00pm 23.4 22.2 15.0 59 5.0 E 15 26 8 14 1014.6 - 0.0
29/10:30pm 23.7 21.5 14.5 56 5.4 E 19 24 10 13 1014.6 - 0.0
29/10:00pm 24.1 22.0 13.5 51 6.2 E 17 28 9 15 1014.6 - 0.0
29/09:30pm 24.5 22.1 12.5 47 6.9 E 17 26 9 14 1014.5 - 0.0
29/09:00pm 25.1 22.1 10.7 40 8.0 E 17 22 9 12 1014.2 1014.1 0.0

Other Formats:

Comma delimited format used in spreadsheet applications
http://www.bom.gov.au/fwo/IDQ60801/IDQ60801.94170.axf

JavaScript Object Notation format (JSON) in row-major order
http://www.bom.gov.au/fwo/IDQ60801/IDQ60801.94170.json